Time;durP1;ratioP1;P1;durP2;ratioP2;P2;SDS_P1;SDS_P2;PMS_P1;PMS_P2;Temp;Humidity;BMP_temperature;BMP_pressure;BME280_temperature;BME280_humidity;BME280_pressure;Samples;Min_cycle;Max_cycle;Signal;HPM_P1;HPM_P2
2023/01/06 00:00:16;;;;;;;12.40;3.92;;;9.80;99.90;;;;;;4907461;28;20055;-78
2023/01/06 00:02:44;;;;;;;25.90;5.88;;;9.80;99.90;;;;;;4906745;28;20102;-79
2023/01/06 00:05:10;;;;;;;16.52;5.82;;;9.80;99.90;;;;;;4915201;28;20083;-77
2023/01/06 00:07:35;;;;;;;8.77;4.13;;;9.80;99.90;;;;;;4925511;28;20044;-78
2023/01/06 00:10:01;;;;;;;9.35;4.22;;;9.80;99.90;;;;;;4924800;28;20439;-79
2023/01/06 00:12:27;;;;;;;11.77;4.90;;;9.90;99.90;;;;;;4924518;29;20043;-79
2023/01/06 00:14:52;;;;;;;10.40;5.10;;;9.90;99.90;;;;;;4925184;29;20501;-79
2023/01/06 00:17:18;;;;;;;17.95;6.32;;;9.90;99.90;;;;;;4924963;29;20085;-78
2023/01/06 00:19:43;;;;;;;12.70;4.63;;;9.90;99.90;;;;;;4924627;29;20570;-78
2023/01/06 00:22:09;;;;;;;20.83;5.35;;;9.90;99.90;;;;;;4907174;28;20040;-79
2023/01/06 00:24:35;;;;;;;20.00;5.43;;;9.90;99.90;;;;;;4905544;29;20625;-79
2023/01/06 00:27:00;;;;;;;17.45;5.05;;;9.90;99.90;;;;;;4906225;29;20047;-78
2023/01/06 00:29:26;;;;;;;13.02;4.22;;;9.90;99.90;;;;;;4906670;29;20092;-80
2023/01/06 00:31:52;;;;;;;13.40;4.43;;;9.90;99.90;;;;;;4912089;29;20115;-78
2023/01/06 00:34:18;;;;;;;17.85;3.67;;;9.90;99.90;;;;;;4925957;29;20044;-79
2023/01/06 00:36:44;;;;;;;5.88;3.45;;;9.90;99.90;;;;;;4925658;28;20127;-77
2023/01/06 00:39:12;;;;;;;12.40;4.25;;;9.90;99.90;;;;;;4924333;29;20475;-79
2023/01/06 00:44:23;;;;;;;10.27;4.38;;;9.90;99.90;;;;;;4925153;29;20110;-78
2023/01/06 00:46:49;;;;;;;22.80;4.45;;;9.80;99.90;;;;;;4924890;28;20348;-81
2023/01/06 00:49:14;;;;;;;7.03;3.03;;;9.80;99.90;;;;;;4906675;28;20119;-79
2023/01/06 00:51:40;;;;;;;14.73;3.88;;;9.80;99.90;;;;;;4905851;29;20441;-78
2023/01/06 00:54:08;;;;;;;11.52;2.90;;;9.90;99.90;;;;;;4905273;28;20151;-80
2023/01/06 00:56:41;;;;;;;20.60;4.18;;;9.80;99.90;;;;;;4906055;29;20479;-79
2023/01/06 00:59:08;;;;;;;23.58;4.88;;;9.80;99.90;;;;;;4905726;29;20490;-78
2023/01/06 01:01:35;;;;;;;8.93;4.10;;;9.80;99.90;;;;;;4905960;29;20090;-78
2023/01/06 01:04:01;;;;;;;16.50;3.97;;;9.80;99.90;;;;;;4905544;29;20511;-80
2023/01/06 01:06:27;;;;;;;12.68;4.38;;;9.80;99.90;;;;;;4914804;28;20123;-78
2023/01/06 01:08:54;;;;;;;21.35;4.53;;;9.80;99.90;;;;;;4903546;29;20057;-78
2023/01/06 01:14:05;;;;;;;17.67;4.95;;;9.80;99.90;;;;;;4924844;29;20055;-78
2023/01/06 01:16:31;;;;;;;8.60;3.47;;;9.80;99.90;;;;;;4924445;29;20091;-77
2023/01/06 01:18:56;;;;;;;12.95;3.08;;;9.80;99.90;;;;;;4924576;29;20090;-80
2023/01/06 01:21:22;;;;;;;15.82;3.47;;;9.80;99.90;;;;;;4890393;29;20463;-78
2023/01/06 01:23:48;;;;;;;6.28;3.45;;;9.80;99.90;;;;;;4908603;29;20040;-81
2023/01/06 01:26:14;;;;;;;13.45;3.05;;;9.80;99.90;;;;;;4925797;29;20437;-78
2023/01/06 01:28:40;;;;;;;10.05;2.88;;;9.80;99.90;;;;;;4924883;29;20051;-78
2023/01/06 01:31:05;;;;;;;12.57;3.10;;;9.80;99.90;;;;;;4924519;29;20043;-79
2023/01/06 01:33:31;;;;;;;7.57;3.20;;;9.80;99.90;;;;;;4923648;29;20090;-78
2023/01/06 01:36:03;;;;;;;12.43;3.92;;;9.80;99.90;;;;;;4924479;29;20050;-79
2023/01/06 01:38:29;;;;;;;11.93;2.92;;;9.80;99.90;;;;;;4923669;29;20536;-79
2023/01/06 01:40:54;;;;;;;11.35;3.88;;;9.80;99.90;;;;;;4922120;28;20079;-78
2023/01/06 01:43:20;;;;;;;11.57;2.70;;;9.80;99.90;;;;;;4921647;29;20500;-78
2023/01/06 01:45:50;;;;;;;5.53;2.35;;;9.80;99.90;;;;;;4905796;29;20082;-79
2023/01/06 01:48:15;;;;;;;9.90;2.25;;;9.80;99.90;;;;;;4906242;29;20075;-78
2023/01/06 01:50:49;;;;;;;13.85;3.15;;;9.80;99.90;;;;;;4905520;29;20565;-78
2023/01/06 01:53:16;;;;;;;8.70;3.25;;;9.80;99.90;;;;;;4905670;29;20071;-78
2023/01/06 01:55:42;;;;;;;10.73;4.07;;;9.80;99.90;;;;;;4912898;29;20487;-79
2023/01/06 01:58:15;;;;;;;4.18;2.05;;;9.80;99.90;;;;;;4918009;29;20040;-79
2023/01/06 02:00:42;;;;;;;;;;;9.80;99.90;;;;;;4904291;29;20040;-78
2023/01/06 02:03:09;;;;;;;7.00;2.25;;;9.80;99.90;;;;;;4904788;29;19938;-78
2023/01/06 02:05:38;;;;;;;10.15;3.53;;;9.80;99.90;;;;;;4905153;28;20063;-80
2023/01/06 02:08:09;;;;;;;6.88;2.03;;;9.80;99.90;;;;;;4905100;28;20553;-79
2023/01/06 02:10:34;;;;;;;8.55;2.63;;;9.80;99.90;;;;;;4904606;29;20091;-78
2023/01/06 02:13:01;;;;;;;4.55;1.75;;;9.80;99.90;;;;;;4903575;29;20060;-78
2023/01/06 02:15:31;;;;;;;5.97;1.75;;;9.80;99.90;;;;;;4888069;29;20051;-80
2023/01/06 02:18:30;;;;;;;12.38;2.63;;;9.80;99.90;;;;;;4904959;29;20040;-80
2023/01/06 02:21:22;;;;;;;5.90;2.25;;;9.80;99.90;;;;;;4902014;29;20052;-78
2023/01/06 02:24:18;;;;;;;6.32;1.80;;;9.90;99.90;;;;;;4896223;29;20060;-81
2023/01/06 02:26:54;;;;;;;12.10;2.05;;;9.80;99.90;;;;;;4919020;29;20044;-78
2023/01/06 02:30:05;;;;;;;2.35;1.60;;;9.80;99.90;;;;;;4922783;28;20051;-78
2023/01/06 02:32:43;;;;;;;3.42;2.22;;;9.80;99.90;;;;;;4923618;28;20115;-78
2023/01/06 02:35:28;;;;;;;9.43;2.22;;;9.80;99.90;;;;;;4923918;29;20130;-78
2023/01/06 02:38:31;;;;;;;8.55;1.67;;;9.80;99.90;;;;;;4923419;29;20066;-78
2023/01/06 02:41:09;;;;;;;5.78;1.55;;;9.90;99.90;;;;;;4944080;28;20399;-78
2023/01/06 02:44:03;;;;;;;3.10;1.63;;;9.90;99.90;;;;;;4923737;29;20127;-80
2023/01/06 02:47:11;;;;;;;6.55;1.85;;;9.90;99.90;;;;;;4932949;28;20422;-78
2023/01/06 02:49:49;;;;;;;8.52;2.83;;;9.90;99.90;;;;;;4965968;28;20058;-79
2023/01/06 02:52:36;;;;;;;3.83;1.20;;;9.90;99.90;;;;;;4982180;28;20056;-80
2023/01/06 02:55:10;;;;;;;5.00;2.40;;;9.90;99.90;;;;;;4906589;29;20559;-78
2023/01/06 02:57:49;;;;;;;6.88;1.45;;;9.90;99.90;;;;;;4907868;28;20664;-79
2023/01/06 03:00:21;;;;;;;5.32;1.35;;;9.80;99.90;;;;;;4908201;29;20051;-79
2023/01/06 03:03:03;;;;;;;2.50;1.55;;;9.90;99.90;;;;;;4908338;29;20499;-78
2023/01/06 03:05:33;;;;;;;8.53;1.40;;;9.90;99.90;;;;;;4907498;29;20102;-78
2023/01/06 03:08:02;;;;;;;2.70;1.10;;;9.80;99.90;;;;;;4906108;29;20301;-78
2023/01/06 03:10:29;;;;;;;6.90;2.15;;;9.80;99.90;;;;;;4921907;29;20052;-79
2023/01/06 03:13:03;;;;;;;6.20;2.55;;;9.80;99.90;;;;;;4925444;28;20051;-78
2023/01/06 03:15:29;;;;;;;6.90;2.25;;;9.80;99.90;;;;;;4926549;29;20410;-79
2023/01/06 03:17:55;;;;;;;4.57;1.70;;;9.80;99.90;;;;;;4926344;29;20043;-78
2023/01/06 03:20:20;;;;;;;10.85;2.85;;;9.80;99.90;;;;;;4926754;28;20055;-80
2023/01/06 03:22:46;;;;;;;4.18;2.30;;;9.80;99.90;;;;;;4926979;28;20047;-78
2023/01/06 03:25:13;;;;;;;5.00;2.80;;;9.80;99.90;;;;;;4923874;29;20062;-80
2023/01/06 03:27:38;;;;;;;3.13;2.78;;;9.80;99.90;;;;;;4926458;29;20520;-78
2023/01/06 03:30:08;;;;;;;4.28;3.05;;;9.80;99.90;;;;;;4925849;29;20135;-79
2023/01/06 03:33:03;;;;;;;4.35;3.10;;;9.80;99.90;;;;;;4924522;29;20047;-78
2023/01/06 03:35:57;;;;;;;5.30;3.60;;;9.80;99.90;;;;;;4906215;29;20529;-79
2023/01/06 03:39:06;;;;;;;5.75;3.53;;;9.80;99.90;;;;;;4906114;28;20067;-79
2023/01/06 03:45:01;;;;;;;6.30;4.82;;;9.80;99.90;;;;;;4931617;28;20138;-78
2023/01/06 03:47:44;;;;;;;6.85;5.65;;;9.80;99.90;;;;;;4890320;29;20051;-79
2023/01/06 03:50:20;;;;;;;8.85;6.18;;;9.80;99.90;;;;;;4905959;28;20048;-78
2023/01/06 03:52:55;;;;;;;13.05;6.30;;;9.80;99.90;;;;;;4907531;29;20051;-78
2023/01/06 03:55:25;;;;;;;9.50;5.45;;;9.80;99.90;;;;;;4904615;29;20059;-79
2023/01/06 03:57:57;;;;;;;12.55;7.25;;;9.70;99.90;;;;;;4905484;28;20499;-79
2023/01/06 04:00:30;;;;;;;14.25;7.22;;;9.70;99.90;;;;;;4907017;29;20036;-79
2023/01/06 04:02:56;;;;;;;10.50;6.78;;;9.70;99.90;;;;;;4908165;28;20067;-78
2023/01/06 04:05:24;;;;;;;10.23;6.82;;;9.70;99.90;;;;;;4925144;29;20044;-80
2023/01/06 04:07:50;;;;;;;11.45;7.22;;;9.70;99.90;;;;;;4924886;29;20606;-78
2023/01/06 04:10:18;;;;;;;7.43;5.95;;;9.70;99.90;;;;;;4941287;28;20055;-79
2023/01/06 04:12:44;;;;;;;9.05;5.15;;;9.70;99.90;;;;;;4927029;29;20047;-78
2023/01/06 04:15:11;;;;;;;8.63;5.85;;;9.70;99.90;;;;;;4925467;29;20044;-78
2023/01/06 04:17:38;;;;;;;10.77;6.18;;;9.70;99.90;;;;;;4926000;29;20079;-79
2023/01/06 04:20:09;;;;;;;6.07;4.80;;;9.70;99.90;;;;;;4925111;29;20097;-78
2023/01/06 04:22:35;;;;;;;9.35;5.40;;;9.70;99.90;;;;;;4925861;28;20051;-78
2023/01/06 04:25:01;;;;;;;6.55;4.95;;;9.70;99.90;;;;;;4924417;28;20055;-78
2023/01/06 04:27:27;;;;;;;7.07;5.32;;;9.60;99.90;;;;;;4925262;29;20043;-80
2023/01/06 04:29:53;;;;;;;8.07;5.47;;;9.70;99.90;;;;;;4923855;29;20055;-80
2023/01/06 04:32:18;;;;;;;7.03;4.88;;;9.70;99.90;;;;;;4925554;29;20039;-81
2023/01/06 04:34:44;;;;;;;7.43;5.28;;;9.70;99.90;;;;;;4925752;29;20047;-78
2023/01/06 04:37:10;;;;;;;6.55;3.65;;;9.70;99.90;;;;;;4924208;29;20483;-79
2023/01/06 04:39:35;;;;;;;5.50;4.25;;;9.70;99.90;;;;;;4924627;29;20039;-78
2023/01/06 04:42:01;;;;;;;4.88;3.13;;;9.70;99.90;;;;;;4923678;29;20048;-79
2023/01/06 04:44:26;;;;;;;7.63;3.38;;;9.70;99.90;;;;;;4925225;29;20040;-79
2023/01/06 04:46:52;;;;;;;8.07;4.65;;;9.70;99.90;;;;;;4924989;29;20520;-78
2023/01/06 04:49:17;;;;;;;3.42;2.83;;;9.70;99.90;;;;;;4925440;29;20036;-80
2023/01/06 04:51:43;;;;;;;4.47;2.83;;;9.70;99.90;;;;;;4925408;29;20043;-78
2023/01/06 04:54:09;;;;;;;6.30;2.97;;;9.70;99.90;;;;;;4923815;29;20048;-79
2023/01/06 04:56:34;;;;;;;4.70;2.92;;;9.70;99.90;;;;;;4915702;29;20423;-77
2023/01/06 04:59:00;;;;;;;4.72;2.72;;;9.70;99.90;;;;;;4904305;29;20036;-77
2023/01/06 05:01:26;;;;;;;2.97;2.67;;;9.70;99.90;;;;;;4906167;29;20487;-80
2023/01/06 05:03:52;;;;;;;4.13;2.63;;;9.70;99.90;;;;;;4916882;29;20039;-80
2023/01/06 05:06:19;;;;;;;3.25;2.40;;;9.70;99.90;;;;;;4924875;28;20209;-81
2023/01/06 05:08:45;;;;;;;3.38;2.83;;;9.70;99.90;;;;;;4924138;28;20040;-78
2023/01/06 05:11:14;;;;;;;3.17;2.25;;;9.80;99.90;;;;;;4924535;29;20082;-77
2023/01/06 05:13:40;;;;;;;2.90;2.50;;;9.80;99.90;;;;;;4924811;29;20040;-79
2023/01/06 05:16:12;;;;;;;3.38;2.33;;;9.80;99.90;;;;;;4923699;29;20077;-78
2023/01/06 05:18:38;;;;;;;3.10;1.95;;;9.80;99.90;;;;;;4925073;28;20047;-77
2023/01/06 05:21:04;;;;;;;6.68;2.40;;;9.80;99.90;;;;;;4924213;29;20114;-78
2023/01/06 05:23:29;;;;;;;3.03;2.22;;;9.80;99.90;;;;;;4923806;28;20046;-79
2023/01/06 05:25:55;;;;;;;5.18;2.55;;;9.70;99.90;;;;;;4922784;29;20036;-78
2023/01/06 05:28:20;;;;;;;4.13;2.83;;;9.70;99.90;;;;;;4923310;29;20051;-79
2023/01/06 05:30:46;;;;;;;3.85;2.85;;;9.70;99.90;;;;;;4925196;29;20497;-78
2023/01/06 05:33:12;;;;;;;8.13;2.72;;;9.70;99.90;;;;;;4923871;29;20510;-79
2023/01/06 05:35:37;;;;;;;5.25;3.33;;;9.70;99.90;;;;;;4924732;29;20044;-79
2023/01/06 05:38:03;;;;;;;4.70;2.90;;;9.60;99.90;;;;;;4923517;29;20044;-77
2023/01/06 05:40:29;;;;;;;4.97;3.70;;;9.60;99.90;;;;;;4924375;29;20043;-80
2023/01/06 05:42:56;;;;;;;3.60;3.05;;;9.60;99.90;;;;;;4924458;29;20483;-78
2023/01/06 05:45:23;;;;;;;5.78;3.42;;;9.60;99.90;;;;;;4924236;29;20048;-78
2023/01/06 05:47:48;;;;;;;4.80;3.15;;;9.60;99.90;;;;;;4914021;29;20047;-82
2023/01/06 05:50:14;;;;;;;4.13;2.75;;;9.60;99.90;;;;;;4924789;29;20047;-79
2023/01/06 05:52:39;;;;;;;6.75;4.13;;;9.60;99.90;;;;;;4922449;29;20054;-80
2023/01/06 05:55:06;;;;;;;6.95;3.70;;;9.50;99.90;;;;;;4904393;29;20044;-78
2023/01/06 05:57:32;;;;;;;5.15;3.22;;;9.60;99.90;;;;;;4905117;29;20107;-80
2023/01/06 05:59:58;;;;;;;6.25;4.32;;;9.50;99.90;;;;;;4904880;29;20044;-80
2023/01/06 06:02:23;;;;;;;4.50;3.30;;;9.50;99.90;;;;;;4920980;29;20059;-79
2023/01/06 06:04:50;;;;;;;8.05;3.63;;;9.50;99.90;;;;;;4922613;29;20705;-80
2023/01/06 06:07:15;;;;;;;4.05;3.67;;;9.50;99.90;;;;;;4924340;29;20177;-80
2023/01/06 06:09:41;;;;;;;6.20;3.47;;;9.50;99.90;;;;;;4921857;28;20510;-79
2023/01/06 06:12:07;;;;;;;7.13;4.75;;;9.50;99.90;;;;;;4924037;29;20066;-79
2023/01/06 06:14:33;;;;;;;6.38;4.20;;;9.50;99.90;;;;;;4924043;29;20055;-78
2023/01/06 06:16:58;;;;;;;5.28;3.60;;;9.50;99.90;;;;;;4923615;29;20505;-79
2023/01/06 06:19:24;;;;;;;7.22;3.60;;;9.50;99.90;;;;;;4924884;29;20134;-79
2023/01/06 06:21:51;;;;;;;5.00;4.50;;;9.50;99.90;;;;;;4926560;29;20055;-79
2023/01/06 06:24:16;;;;;;;5.68;4.38;;;9.50;99.90;;;;;;4927031;28;20055;-78
2023/01/06 06:26:42;;;;;;;5.60;4.00;;;9.50;99.90;;;;;;4916922;29;20119;-79
2023/01/06 06:29:07;;;;;;;7.45;4.13;;;9.50;99.90;;;;;;4908257;29;20491;-80
2023/01/06 06:31:33;;;;;;;5.82;4.75;;;9.50;99.90;;;;;;4908366;29;20473;-80
2023/01/06 06:34:01;;;;;;;6.15;3.88;;;9.60;99.90;;;;;;4907835;29;20490;-79
2023/01/06 06:36:27;;;;;;;6.03;3.88;;;9.60;99.90;;;;;;4908373;29;20084;-79
2023/01/06 06:38:54;;;;;;;13.05;4.38;;;9.60;99.90;;;;;;4890098;29;20044;-79
2023/01/06 06:41:21;;;;;;;10.68;4.28;;;9.60;99.90;;;;;;4907911;29;20070;-80
2023/01/06 06:43:50;;;;;;;8.90;3.88;;;9.60;99.90;;;;;;4908836;29;20549;-78
2023/01/06 06:46:16;;;;;;;5.28;4.05;;;9.50;99.90;;;;;;4915715;29;20044;-78
2023/01/06 06:48:41;;;;;;;6.45;3.90;;;9.60;99.90;;;;;;4927379;29;20040;-79
2023/01/06 06:51:13;;;;;;;4.47;3.00;;;9.50;99.90;;;;;;4926545;29;20052;-80
2023/01/06 06:53:40;;;;;;;4.03;2.28;;;9.60;99.90;;;;;;4927507;29;20043;-78
2023/01/06 06:56:06;;;;;;;14.02;2.83;;;9.60;99.90;;;;;;4919861;29;20146;-78
2023/01/06 06:58:33;;;;;;;4.18;2.15;;;9.60;99.90;;;;;;4907730;28;20040;-79
2023/01/06 07:01:09;;;;;;;9.27;3.05;;;9.70;99.90;;;;;;4906726;29;20086;-80
2023/01/06 07:03:35;;;;;;;12.25;2.97;;;9.60;99.90;;;;;;4907755;29;20477;-79
2023/01/06 07:06:02;;;;;;;8.10;2.53;;;9.60;99.90;;;;;;4906360;28;20099;-79
2023/01/06 07:08:28;;;;;;;10.07;1.80;;;9.60;99.90;;;;;;4906692;29;20055;-79
2023/01/06 07:10:53;;;;;;;4.75;1.75;;;9.50;99.90;;;;;;4907432;29;20052;-78
2023/01/06 07:13:19;;;;;;;3.53;1.10;;;9.40;99.90;;;;;;4907894;29;20040;-79
2023/01/06 07:15:45;;;;;;;7.60;1.67;;;9.40;99.90;;;;;;4907858;29;20048;-80
2023/01/06 07:18:11;;;;;;;4.00;1.42;;;9.30;99.90;;;;;;4915592;29;20040;-79
2023/01/06 07:20:37;;;;;;;2.70;1.08;;;9.20;99.90;;;;;;4920476;29;20558;-78
2023/01/06 07:23:03;;;;;;;5.68;1.60;;;9.10;99.90;;;;;;4925304;28;20051;-79
2023/01/06 07:25:29;;;;;;;1.33;0.95;;;9.00;99.90;;;;;;4926517;29;20075;-77
2023/01/06 07:27:57;;;;;;;1.00;0.70;;;8.90;99.90;;;;;;4925993;29;20082;-79
2023/01/06 07:30:24;;;;;;;1.23;0.85;;;8.90;99.90;;;;;;4925911;29;20174;-78
2023/01/06 07:32:50;;;;;;;14.20;1.90;;;8.80;99.90;;;;;;4924752;29;20699;-78
2023/01/06 07:35:16;;;;;;;3.22;1.25;;;8.70;99.90;;;;;;4926648;28;20117;-80
2023/01/06 07:37:42;;;;;;;4.25;1.00;;;8.70;99.90;;;;;;4925113;29;20036;-78
2023/01/06 07:40:08;;;;;;;7.20;1.73;;;8.70;99.90;;;;;;4925756;28;20561;-79
2023/01/06 07:42:35;;;;;;;5.38;1.55;;;8.60;99.90;;;;;;4925289;28;20398;-78
2023/01/06 07:45:01;;;;;;;4.18;1.05;;;8.50;99.90;;;;;;4923956;28;20101;-78
2023/01/06 07:47:26;;;;;;;7.07;1.83;;;8.50;99.90;;;;;;4905723;29;20056;-80
2023/01/06 07:49:52;;;;;;;6.32;1.52;;;8.40;99.90;;;;;;4907124;29;20552;-78
2023/01/06 07:52:18;;;;;;;2.00;0.90;;;8.40;99.90;;;;;;4917606;29;20046;-78
2023/01/06 07:54:43;;;;;;;3.25;1.38;;;8.40;99.90;;;;;;4925407;29;20055;-77
2023/01/06 07:57:09;;;;;;;7.10;1.88;;;8.30;99.90;;;;;;4925511;29;20051;-78
2023/01/06 07:59:34;;;;;;;5.07;2.53;;;8.20;99.90;;;;;;4926179;29;20054;-79
2023/01/06 08:02:00;;;;;;;5.28;2.60;;;8.20;99.90;;;;;;4925536;29;20576;-78
2023/01/06 08:04:25;;;;;;;5.03;1.25;;;8.20;99.90;;;;;;4925896;29;20079;-79
2023/01/06 08:06:51;;;;;;;7.75;2.88;;;8.10;99.90;;;;;;4925297;28;20130;-78
2023/01/06 08:09:17;;;;;;;11.65;3.17;;;8.10;99.90;;;;;;4924772;29;20186;-78
2023/01/06 08:11:42;;;;;;;5.47;2.53;;;8.10;99.90;;;;;;4926110;29;20044;-78
2023/01/06 08:14:10;;;;;;;5.50;3.90;;;8.00;99.90;;;;;;4925301;29;21110;-78
2023/01/06 08:16:38;;;;;;;4.57;2.03;;;8.00;99.90;;;;;;4917768;29;20052;-80
2023/01/06 08:19:04;;;;;;;3.65;1.38;;;8.00;99.90;;;;;;4906812;28;20071;-78
2023/01/06 08:21:29;;;;;;;7.63;1.92;;;8.00;99.90;;;;;;4907081;29;20051;-77
2023/01/06 08:23:55;;;;;;;3.90;2.63;;;7.90;99.90;;;;;;4905598;29;20048;-80
2023/01/06 08:26:20;;;;;;;11.55;2.65;;;7.90;99.90;;;;;;4907187;29;20054;-77
2023/01/06 08:28:46;;;;;;;8.48;2.67;;;7.90;99.90;;;;;;4907630;29;20044;-78
2023/01/06 08:31:16;;;;;;;5.30;2.20;;;7.90;99.90;;;;;;4910562;28;20147;-77
2023/01/06 08:33:42;;;;;;;8.73;2.70;;;7.90;99.90;;;;;;4925684;29;20098;-77
2023/01/06 08:36:11;;;;;;;5.30;1.85;;;7.90;99.90;;;;;;4925023;29;20047;-79
2023/01/06 08:38:37;;;;;;;17.02;2.22;;;7.90;99.90;;;;;;4924264;29;20040;-79
2023/01/06 08:41:03;;;;;;;9.00;2.00;;;7.80;99.90;;;;;;4924957;29;20459;-80
2023/01/06 08:43:30;;;;;;;5.18;1.25;;;7.80;99.90;;;;;;4924962;29;20075;-77
2023/01/06 08:46:05;;;;;;;4.90;1.75;;;7.80;99.90;;;;;;4924658;29;20118;-78
2023/01/06 08:48:32;;;;;;;3.00;2.03;;;7.80;99.90;;;;;;4925237;29;20047;-80
2023/01/06 08:51:06;;;;;;;5.25;1.95;;;7.80;99.90;;;;;;4925149;29;20118;-78
2023/01/06 08:53:33;;;;;;;4.65;1.50;;;7.80;99.90;;;;;;4923424;29;20047;-80
2023/01/06 08:55:58;;;;;;;4.70;1.40;;;7.80;99.90;;;;;;4924719;28;20039;-77
2023/01/06 08:58:24;;;;;;;4.45;1.60;;;7.80;99.90;;;;;;4924799;29;20062;-80
2023/01/06 09:00:50;;;;;;;3.75;2.47;;;7.80;99.90;;;;;;4939065;29;20047;-77
2023/01/06 09:03:16;;;;;;;11.40;1.98;;;7.90;99.90;;;;;;4919761;28;20530;-78
2023/01/06 09:05:42;;;;;;;4.88;1.67;;;7.90;99.90;;;;;;4906184;28;20052;-79
2023/01/06 09:08:08;;;;;;;3.67;1.42;;;7.90;99.90;;;;;;4914931;29;20101;-78
2023/01/06 09:10:37;;;;;;;4.20;1.90;;;8.00;99.90;;;;;;4922391;28;20067;-79
2023/01/06 09:13:02;;;;;;;9.35;2.63;;;8.00;99.90;;;;;;4923504;29;20040;-78
2023/01/06 09:15:28;;;;;;;5.65;2.00;;;8.00;99.90;;;;;;4924798;29;20268;-78
2023/01/06 09:17:54;;;;;;;10.35;2.40;;;8.00;99.90;;;;;;4922888;28;20542;-79
2023/01/06 09:20:19;;;;;;;20.42;2.53;;;8.00;99.90;;;;;;4916858;28;20044;-78
2023/01/06 09:22:45;;;;;;;3.85;1.75;;;8.10;99.90;;;;;;4922222;29;20130;-79
2023/01/06 09:25:11;;;;;;;4.78;1.70;;;8.10;99.90;;;;;;4923616;29;20090;-77
2023/01/06 09:27:36;;;;;;;4.18;1.73;;;8.10;99.90;;;;;;4924276;28;20130;-78
2023/01/06 09:30:03;;;;;;;6.70;1.30;;;8.10;99.90;;;;;;4921416;29;20036;-79
2023/01/06 09:32:29;;;;;;;3.47;2.13;;;8.20;99.90;;;;;;4924562;28;20044;-78
2023/01/06 09:34:54;;;;;;;10.70;2.00;;;8.10;99.90;;;;;;4913781;29;20106;-79
2023/01/06 09:37:20;;;;;;;4.47;1.77;;;8.10;99.90;;;;;;4919224;28;20040;-79
2023/01/06 09:39:45;;;;;;;3.67;1.60;;;8.20;99.90;;;;;;4910081;28;20052;-76
2023/01/06 09:42:46;;;;;;;4.72;1.95;;;8.20;99.90;;;;;;4905342;28;20040;-75
2023/01/06 09:45:17;;;;;;;2.05;1.85;;;8.20;99.90;;;;;;4907027;29;20048;-78
2023/01/06 09:47:54;;;;;;;3.50;2.05;;;8.20;99.90;;;;;;4923564;29;20498;-78
2023/01/06 09:50:43;;;;;;;9.88;2.03;;;8.30;99.90;;;;;;4921930;28;20443;-77
2023/01/06 09:53:38;;;;;;;7.18;1.80;;;8.30;99.90;;;;;;4909198;29;20097;-78
2023/01/06 09:56:09;;;;;;;3.30;1.90;;;8.40;99.90;;;;;;4917484;29;20051;-76
2023/01/06 09:58:43;;;;;;;7.22;1.98;;;8.30;99.90;;;;;;4929287;28;20043;-77
2023/01/06 10:01:12;;;;;;;13.88;1.42;;;8.40;99.90;;;;;;4923016;29;20052;-77
2023/01/06 10:03:38;;;;;;;2.65;1.45;;;8.40;99.90;;;;;;4924144;29;20569;-78
2023/01/06 10:06:30;;;;;;;18.83;2.97;;;8.40;99.90;;;;;;4922679;29;20087;-77
2023/01/06 10:09:41;;;;;;;2.75;1.77;;;8.40;99.90;;;;;;4921296;29;20079;-78
2023/01/06 10:12:21;;;;;;;9.80;2.55;;;8.40;99.90;;;;;;4921424;28;20088;-77
2023/01/06 10:14:46;;;;;;;7.32;2.42;;;8.50;99.90;;;;;;4921721;28;20063;-77
2023/01/06 10:17:15;;;;;;;4.22;2.55;;;8.50;99.90;;;;;;4931525;28;20083;-78
2023/01/06 10:20:17;;;;;;;3.70;1.75;;;8.50;99.90;;;;;;4923052;29;20110;-78
2023/01/06 10:23:00;;;;;;;2.00;1.50;;;8.50;99.90;;;;;;4921678;29;20059;-78
2023/01/06 10:25:51;;;;;;;6.05;2.05;;;8.50;99.90;;;;;;4928648;28;20055;-76
2023/01/06 10:28:29;;;;;;;2.03;1.27;;;8.50;99.90;;;;;;4924266;28;20500;-76
2023/01/06 10:30:59;;;;;;;12.73;1.70;;;8.50;99.90;;;;;;4916565;29;20072;-76
2023/01/06 10:33:29;;;;;;;11.73;2.35;;;8.50;99.90;;;;;;4937544;29;20054;-76
2023/01/06 10:35:56;;;;;;;5.15;1.55;;;8.50;99.90;;;;;;4923190;28;20328;-76
2023/01/06 10:38:32;;;;;;;4.50;1.48;;;8.60;99.90;;;;;;4920874;29;20550;-76
2023/01/06 10:41:16;;;;;;;22.95;2.65;;;8.60;99.90;;;;;;4919134;29;20044;-76
2023/01/06 10:43:42;;;;;;;8.90;2.25;;;8.60;99.90;;;;;;4954148;28;20128;-76
2023/01/06 10:46:08;;;;;;;4.30;2.08;;;8.60;99.90;;;;;;4925221;28;20036;-76
2023/01/06 10:48:34;;;;;;;4.03;1.60;;;8.60;99.90;;;;;;4924153;28;20059;-75
2023/01/06 10:51:33;;;;;;;15.85;2.50;;;8.60;99.90;;;;;;4920547;28;20040;-77
2023/01/06 10:54:03;;;;;;;2.85;1.63;;;8.60;99.90;;;;;;4916040;28;20104;-77
2023/01/06 10:56:30;;;;;;;10.18;2.85;;;8.60;99.90;;;;;;4920339;29;20510;-76
2023/01/06 10:59:06;;;;;;;7.95;2.63;;;8.60;99.90;;;;;;4923046;29;20054;-77
2023/01/06 11:01:32;;;;;;;3.72;1.42;;;8.60;99.90;;;;;;4920843;29;20050;-76
2023/01/06 11:04:10;;;;;;;4.63;1.77;;;8.60;99.90;;;;;;4919268;29;20446;-75
2023/01/06 11:06:50;;;;;;;6.07;1.67;;;8.60;99.90;;;;;;4921948;28;20090;-76
2023/01/06 11:09:31;;;;;;;8.88;2.03;;;8.70;99.90;;;;;;4953140;28;20050;-76
2023/01/06 11:11:59;;;;;;;12.25;2.28;;;8.70;99.90;;;;;;4929036;28;20040;-76
2023/01/06 11:14:29;;;;;;;7.68;2.50;;;8.70;99.90;;;;;;4921469;28;20259;-76
2023/01/06 11:16:58;;;;;;;12.25;2.05;;;8.70;99.90;;;;;;4923669;29;20129;-76
2023/01/06 11:19:33;;;;;;;6.63;2.38;;;8.80;99.90;;;;;;4921974;29;20106;-77
2023/01/06 11:21:59;;;;;;;5.97;2.00;;;8.80;99.90;;;;;;4922579;28;20336;-77
2023/01/06 11:24:26;;;;;;;5.68;2.13;;;8.80;99.90;;;;;;4925171;29;20050;-76
2023/01/06 11:27:13;;;;;;;7.38;1.67;;;8.80;99.90;;;;;;4925618;29;20040;-76
2023/01/06 11:29:39;;;;;;;11.63;2.65;;;8.80;99.90;;;;;;4923972;29;20166;-77
2023/01/06 11:32:32;;;;;;;6.70;2.25;;;8.80;99.90;;;;;;4924447;28;20123;-77
2023/01/06 11:35:00;;;;;;;4.70;2.50;;;8.80;99.90;;;;;;4922106;28;20438;-77
2023/01/06 11:37:33;;;;;;;8.65;3.55;;;8.80;99.90;;;;;;4922615;29;20169;-76
2023/01/06 11:40:00;;;;;;;3.53;1.80;;;8.80;99.90;;;;;;4915307;29;20043;-77
2023/01/06 11:42:26;;;;;;;5.03;2.15;;;8.80;99.90;;;;;;4922786;29;20055;-77
2023/01/06 11:44:52;;;;;;;14.18;3.13;;;8.80;99.90;;;;;;4925246;29;20043;-76
2023/01/06 11:47:24;;;;;;;11.20;1.85;;;8.90;99.90;;;;;;4926504;28;20044;-77
2023/01/06 11:49:55;;;;;;;6.00;2.30;;;8.90;99.90;;;;;;4899990;28;20509;-76
2023/01/06 11:52:30;;;;;;;6.50;1.30;;;8.90;99.90;;;;;;4922582;29;20075;-76
2023/01/06 11:55:18;;;;;;;10.23;1.98;;;8.90;99.90;;;;;;4922213;29;20231;-78
2023/01/06 11:57:56;;;;;;;7.78;2.53;;;8.90;99.90;;;;;;4920110;29;20119;-78
2023/01/06 12:00:40;;;;;;;10.00;2.40;;;8.90;99.90;;;;;;4913761;29;20052;-78
2023/01/06 12:03:31;;;;;;;8.50;2.33;;;8.90;99.90;;;;;;4914793;28;20052;-77
2023/01/06 12:06:03;;;;;;;3.38;1.88;;;8.90;99.90;;;;;;4906144;28;20237;-78
2023/01/06 12:08:53;;;;;;;4.65;2.25;;;8.90;99.90;;;;;;4914984;28;20056;-77
2023/01/06 12:11:28;;;;;;;8.07;2.47;;;8.90;99.90;;;;;;4925756;29;20055;-79
2023/01/06 12:13:54;;;;;;;11.43;2.85;;;8.90;99.90;;;;;;4913111;29;20042;-79
2023/01/06 12:16:39;;;;;;;4.85;1.73;;;8.90;99.90;;;;;;4921144;29;20048;-80
2023/01/06 12:19:33;;;;;;;7.38;3.00;;;8.90;99.90;;;;;;4924967;29;20546;-80
2023/01/06 12:22:00;;;;;;;3.63;1.92;;;8.90;99.90;;;;;;4922055;29;20553;-79
2023/01/06 12:24:29;;;;;;;4.80;1.75;;;8.90;99.90;;;;;;4920828;29;20514;-82
2023/01/06 12:26:55;;;;;;;8.23;2.95;;;8.80;99.90;;;;;;4918721;29;20050;-80
2023/01/06 12:29:24;;;;;;;6.47;2.80;;;8.80;99.90;;;;;;4922979;29;20078;-84
2023/01/06 12:32:13;;;;;;;5.15;3.15;;;8.80;99.90;;;;;;4918775;29;20032;-82
2023/01/06 12:34:46;;;;;;;11.95;4.05;;;8.80;99.90;;;;;;4909449;29;20095;-83
2023/01/06 12:37:30;;;;;;;5.47;2.03;;;8.80;99.90;;;;;;4919625;28;20530;-85
2023/01/06 12:40:15;;;;;;;2.42;2.20;;;8.80;99.90;;;;;;4932201;28;20052;-82
2023/01/06 12:42:53;;;;;;;4.85;1.60;;;8.80;99.90;;;;;;4925851;28;20096;-83
2023/01/06 12:45:40;;;;;;;8.60;3.03;;;8.80;99.90;;;;;;4924012;29;20047;-82
2023/01/06 12:48:36;;;;;;;3.13;1.85;;;8.80;99.90;;;;;;4911509;29;20106;-85
2023/01/06 12:51:21;;;;;;;7.82;2.90;;;8.80;99.90;;;;;;4915667;29;20048;-86
2023/01/06 12:53:55;;;;;;;11.05;3.03;;;8.80;99.90;;;;;;4988383;28;20047;-83
2023/01/06 12:56:37;;;;;;;7.45;2.83;;;8.80;99.90;;;;;;4921463;29;20040;-86
2023/01/06 12:59:15;;;;;;;;;;;8.80;99.90;;;;;;4923271;28;20517;-82
2023/01/06 13:01:51;;;;;;;8.48;2.28;;;8.80;99.90;;;;;;4924737;29;19927;-83
2023/01/06 13:04:22;;;;;;;6.05;3.13;;;8.80;99.90;;;;;;4922030;28;20048;-84
2023/01/06 13:06:54;;;;;;;8.70;2.20;;;8.70;99.90;;;;;;4924392;29;20079;-80
2023/01/06 13:09:32;;;;;;;9.07;2.63;;;8.70;99.90;;;;;;4926040;29;20406;-86
2023/01/06 13:12:19;;;;;;;8.90;2.60;;;8.70;99.90;;;;;;4924043;28;20545;-84
2023/01/06 13:14:53;;;;;;;4.97;2.17;;;8.70;99.90;;;;;;4908437;28;20052;-87
2023/01/06 13:17:31;;;;;;;17.20;3.33;;;8.70;99.90;;;;;;4924481;28;20533;-83
2023/01/06 13:20:01;;;;;;;12.32;2.47;;;8.70;99.90;;;;;;4923057;29;20439;-85
2023/01/06 13:22:51;;;;;;;5.07;2.03;;;8.60;99.90;;;;;;4915472;29;20056;-80